createdAt,value
2019-04-21T00:15:09.750Z,10.09
2019-04-21T00:25:13.975Z,9.89
2019-04-21T00:35:05.643Z,9.81
2019-04-21T00:45:13.107Z,9.69
2019-04-21T00:55:29.613Z,9.58
2019-04-21T01:05:21.436Z,9.27
2019-04-21T01:15:26.419Z,8.98
2019-04-21T01:25:11.134Z,8.87
2019-04-21T01:35:19.335Z,8.86
2019-04-21T01:45:21.861Z,9.04
2019-04-21T01:55:17.735Z,9.01
2019-04-21T02:05:29.405Z,8.62
2019-04-21T02:15:23.932Z,8.36
2019-04-21T02:25:21.790Z,8.22
2019-04-21T02:55:21.960Z,8.07
2019-04-21T03:15:24.493Z,7.77
2019-04-21T04:05:34.595Z,7.41
2019-04-21T04:15:24.398Z,7.06
2019-04-21T04:25:27.816Z,6.71
2019-04-21T04:35:34.098Z,6.64
2019-04-21T04:55:22.071Z,6.87
2019-04-21T05:05:30.097Z,7.41
2019-04-21T05:25:15.191Z,8.96
2019-04-21T05:35:20.089Z,9.56
2019-04-21T05:45:16.018Z,10.51
2019-04-21T05:55:24.667Z,11.64
2019-04-21T06:05:34.985Z,13.02
2019-04-21T06:15:27.582Z,14.33
2019-04-21T06:25:31.535Z,14.90
2019-04-21T06:35:28.925Z,15.86
2019-04-21T06:45:31.789Z,15.71
2019-04-21T06:55:20.464Z,16.50
2019-04-21T07:05:17.097Z,17.48
2019-04-21T07:15:19.794Z,18.03
2019-04-21T07:25:22.345Z,18.64
2019-04-21T07:35:20.786Z,19.32
2019-04-21T07:45:13.347Z,20.13
2019-04-21T07:55:18.705Z,20.70
2019-04-21T08:05:22.811Z,21.06
2019-04-21T08:25:14.949Z,22.11
2019-04-21T08:35:49.723Z,21.93
2019-04-21T08:45:22.600Z,22.96
2019-04-21T08:55:22.504Z,23.63
2019-04-21T09:05:17.786Z,24.25
2019-04-21T09:15:20.245Z,25.25
2019-04-21T09:25:19.613Z,25.90
2019-04-21T09:35:03.382Z,25.80
2019-04-21T09:45:02.609Z,25.67
2019-04-21T09:55:04.781Z,25.66
2019-04-21T10:04:59.575Z,26.00
2019-04-21T10:14:59.764Z,24.57
2019-04-21T10:25:00.545Z,24.46
2019-04-21T10:34:59.613Z,24.70
2019-04-21T10:45:00.993Z,25.44
2019-04-21T10:55:08.410Z,25.38
2019-04-21T11:05:00.732Z,24.62
2019-04-21T11:14:59.565Z,25.13
2019-04-21T11:25:00.701Z,25.85
2019-04-21T11:34:59.606Z,24.84
2019-04-21T11:45:00.639Z,25.12
2019-04-21T11:55:00.542Z,25.26
2019-04-21T12:04:59.495Z,25.62
2019-04-21T12:14:59.940Z,25.67
2019-04-21T12:25:00.764Z,26.32
2019-04-21T12:34:59.824Z,27.56
2019-04-21T12:44:59.604Z,26.06
2019-04-21T12:54:59.718Z,26.48
2019-04-21T13:04:59.775Z,26.87
2019-04-21T13:15:00.737Z,26.96
2019-04-21T13:25:00.026Z,27.21
2019-04-21T13:35:01.107Z,25.78
2019-04-21T13:45:00.953Z,27.42
2019-04-21T13:54:59.557Z,27.62
2019-04-21T14:04:59.643Z,27.70
2019-04-21T14:15:00.100Z,27.82
2019-04-21T14:24:59.800Z,27.80
2019-04-21T14:35:00.836Z,27.23
2019-04-21T14:45:00.861Z,28.13
2019-04-21T14:55:00.669Z,27.20
2019-04-21T15:04:59.879Z,26.94
2019-04-21T15:15:00.183Z,27.52
2019-04-21T15:25:00.530Z,27.06
2019-04-21T15:35:00.303Z,26.61
2019-04-21T15:45:00.835Z,25.98
2019-04-21T15:55:00.820Z,27.02
2019-04-21T16:05:01.007Z,27.35
2019-04-21T16:15:00.666Z,25.68
2019-04-21T16:25:00.895Z,24.43
2019-04-21T16:35:03.925Z,23.74
2019-04-21T16:45:00.873Z,23.54
2019-04-21T16:55:00.244Z,23.31
2019-04-21T17:05:00.430Z,23.07
2019-04-21T17:15:16.748Z,22.86
2019-04-21T17:25:00.344Z,22.63
2019-04-21T17:34:59.641Z,22.44
2019-04-21T17:44:59.708Z,22.21
2019-04-21T17:55:08.875Z,21.79
2019-04-21T18:05:21.476Z,21.40
2019-04-21T18:15:08.325Z,20.91
2019-04-21T18:25:05.706Z,20.26
2019-04-21T18:35:02.441Z,19.66
2019-04-21T18:55:12.921Z,18.48
2019-04-21T19:05:04.454Z,18.09
2019-04-21T19:15:15.876Z,17.43
2019-04-21T19:35:01.988Z,16.43
2019-04-21T19:45:17.922Z,16.22
2019-04-21T19:55:00.584Z,15.88
2019-04-21T20:05:05.904Z,15.51
2019-04-21T20:25:07.734Z,14.80
2019-04-21T20:35:26.629Z,14.71
2019-04-21T20:45:28.858Z,14.90
2019-04-21T20:55:10.724Z,14.47
2019-04-21T21:05:10.473Z,13.99
2019-04-21T21:15:10.111Z,13.57
2019-04-21T21:25:19.325Z,13.17
2019-04-21T21:35:14.166Z,12.82
2019-04-21T21:45:07.834Z,12.51
2019-04-21T21:54:59.665Z,12.29
2019-04-21T22:05:07.713Z,11.96
2019-04-21T22:15:02.373Z,11.65
2019-04-21T22:25:09.648Z,11.35
2019-04-21T22:35:04.777Z,11.22
2019-04-21T22:45:00.691Z,10.99
2019-04-21T22:55:01.576Z,10.86
2019-04-21T23:05:00.533Z,10.79
2019-04-21T23:15:07.816Z,10.59
2019-04-21T23:25:15.196Z,10.29
2019-04-21T23:35:09.253Z,9.97
2019-04-21T23:45:01.342Z,9.70
2019-04-21T23:55:00.985Z,9.78
